sensor_id;sensor_type;location;lat;lon;timestamp;temperature;humidity
73780;SHT30;62093;37.614;15.072;2023-08-20T00:01:32;25.83;58.61
73780;SHT30;62093;37.614;15.072;2023-08-20T00:03:58;25.84;59.02
73780;SHT30;62093;37.614;15.072;2023-08-20T00:06:24;25.84;58.92
73780;SHT30;62093;37.614;15.072;2023-08-20T00:08:50;25.84;58.91
73780;SHT30;62093;37.614;15.072;2023-08-20T00:11:16;25.83;58.64
73780;SHT30;62093;37.614;15.072;2023-08-20T00:13:42;25.81;58.85
73780;SHT30;62093;37.614;15.072;2023-08-20T00:16:09;25.81;58.89
73780;SHT30;62093;37.614;15.072;2023-08-20T00:18:35;25.83;58.76
73780;SHT30;62093;37.614;15.072;2023-08-20T00:21:01;25.83;58.71
73780;SHT30;62093;37.614;15.072;2023-08-20T00:23:27;25.78;58.67
73780;SHT30;62093;37.614;15.072;2023-08-20T00:25:53;25.78;58.90
73780;SHT30;62093;37.614;15.072;2023-08-20T00:28:20;25.78;59.04
73780;SHT30;62093;37.614;15.072;2023-08-20T00:30:46;25.81;58.86
73780;SHT30;62093;37.614;15.072;2023-08-20T00:33:12;25.81;58.74
73780;SHT30;62093;37.614;15.072;2023-08-20T00:35:37;25.77;58.94
73780;SHT30;62093;37.614;15.072;2023-08-20T00:38:05;25.76;58.95
73780;SHT30;62093;37.614;15.072;2023-08-20T00:40:32;25.78;59.05
73780;SHT30;62093;37.614;15.072;2023-08-20T00:42:58;25.77;58.94
73780;SHT30;62093;37.614;15.072;2023-08-20T00:45:24;25.77;59.05
73780;SHT30;62093;37.614;15.072;2023-08-20T00:47:51;25.77;59.09
73780;SHT30;62093;37.614;15.072;2023-08-20T00:50:18;25.76;59.23
73780;SHT30;62093;37.614;15.072;2023-08-20T00:52:44;25.78;59.04
73780;SHT30;62093;37.614;15.072;2023-08-20T00:55:12;25.74;58.89
73780;SHT30;62093;37.614;15.072;2023-08-20T00:57:39;25.73;59.10
73780;SHT30;62093;37.614;15.072;2023-08-20T01:00:06;25.73;59.01
73780;SHT30;62093;37.614;15.072;2023-08-20T01:02:37;25.70;59.39
73780;SHT30;62093;37.614;15.072;2023-08-20T01:05:06;25.70;59.40
73780;SHT30;62093;37.614;15.072;2023-08-20T01:10:56;25.70;59.47
73780;SHT30;62093;37.614;15.072;2023-08-20T01:13:23;25.67;59.35
73780;SHT30;62093;37.614;15.072;2023-08-20T01:15:49;25.69;59.39
73780;SHT30;62093;37.614;15.072;2023-08-20T01:18:15;25.69;59.59
73780;SHT30;62093;37.614;15.072;2023-08-20T01:20:45;25.66;59.51
73780;SHT30;62093;37.614;15.072;2023-08-20T01:26:21;25.66;59.45
73780;SHT30;62093;37.614;15.072;2023-08-20T01:28:51;25.66;59.62
73780;SHT30;62093;37.614;15.072;2023-08-20T01:31:18;25.63;59.45
73780;SHT30;62093;37.614;15.072;2023-08-20T01:33:45;25.63;59.50
73780;SHT30;62093;37.614;15.072;2023-08-20T01:36:11;25.63;59.54
73780;SHT30;62093;37.614;15.072;2023-08-20T01:38:37;25.63;59.38
73780;SHT30;62093;37.614;15.072;2023-08-20T01:41:04;25.63;59.38
73780;SHT30;62093;37.614;15.072;2023-08-20T01:43:32;25.60;59.41
73780;SHT30;62093;37.614;15.072;2023-08-20T01:45:59;25.60;59.62
73780;SHT30;62093;37.614;15.072;2023-08-20T01:48:25;25.59;59.43
73780;SHT30;62093;37.614;15.072;2023-08-20T01:50:50;25.62;59.47
73780;SHT30;62093;37.614;15.072;2023-08-20T01:53:16;25.59;59.55
73780;SHT30;62093;37.614;15.072;2023-08-20T01:55:42;25.59;59.42
73780;SHT30;62093;37.614;15.072;2023-08-20T01:58:08;25.57;59.35
73780;SHT30;62093;37.614;15.072;2023-08-20T02:00:33;25.59;59.25
73780;SHT30;62093;37.614;15.072;2023-08-20T02:02:59;25.54;59.39
73780;SHT30;62093;37.614;15.072;2023-08-20T02:05:25;25.54;59.35
73780;SHT30;62093;37.614;15.072;2023-08-20T02:07:51;25.57;59.11
73780;SHT30;62093;37.614;15.072;2023-08-20T02:10:17;25.57;59.44
73780;SHT30;62093;37.614;15.072;2023-08-20T02:12:43;25.56;59.36
73780;SHT30;62093;37.614;15.072;2023-08-20T02:15:09;25.56;59.39
73780;SHT30;62093;37.614;15.072;2023-08-20T02:17:36;25.54;59.45
73780;SHT30;62093;37.614;15.072;2023-08-20T02:20:03;25.54;59.28
73780;SHT30;62093;37.614;15.072;2023-08-20T02:22:35;25.53;59.38
73780;SHT30;62093;37.614;15.072;2023-08-20T02:25:01;25.53;59.30
73780;SHT30;62093;37.614;15.072;2023-08-20T02:27:27;25.51;59.35
73780;SHT30;62093;37.614;15.072;2023-08-20T02:29:53;25.49;59.49
73780;SHT30;62093;37.614;15.072;2023-08-20T02:32:18;25.51;59.23
73780;SHT30;62093;37.614;15.072;2023-08-20T02:34:50;25.49;59.41
73780;SHT30;62093;37.614;15.072;2023-08-20T02:37:16;25.49;59.51
73780;SHT30;62093;37.614;15.072;2023-08-20T02:39:42;25.49;59.47
73780;SHT30;62093;37.614;15.072;2023-08-20T02:42:07;25.49;59.35
73780;SHT30;62093;37.614;15.072;2023-08-20T02:44:34;25.45;59.58
73780;SHT30;62093;37.614;15.072;2023-08-20T02:47:00;25.47;59.47
73780;SHT30;62093;37.614;15.072;2023-08-20T02:49:25;25.49;59.56
73780;SHT30;62093;37.614;15.072;2023-08-20T02:51:51;25.49;59.31
73780;SHT30;62093;37.614;15.072;2023-08-20T02:54:17;25.46;59.44
73780;SHT30;62093;37.614;15.072;2023-08-20T02:56:42;25.46;59.67
73780;SHT30;62093;37.614;15.072;2023-08-20T02:59:08;25.47;59.62
73780;SHT30;62093;37.614;15.072;2023-08-20T03:01:34;25.45;59.75
73780;SHT30;62093;37.614;15.072;2023-08-20T03:04:00;25.46;59.79
73780;SHT30;62093;37.614;15.072;2023-08-20T03:06:26;25.45;59.68
73780;SHT30;62093;37.614;15.072;2023-08-20T03:08:52;25.40;59.64
73780;SHT30;62093;37.614;15.072;2023-08-20T03:11:17;25.43;59.55
73780;SHT30;62093;37.614;15.072;2023-08-20T03:13:44;25.43;59.37
73780;SHT30;62093;37.614;15.072;2023-08-20T03:16:10;25.45;59.62
73780;SHT30;62093;37.614;15.072;2023-08-20T03:18:36;25.42;59.63
73780;SHT30;62093;37.614;15.072;2023-08-20T03:21:16;25.42;59.48
73780;SHT30;62093;37.614;15.072;2023-08-20T03:23:41;25.39;59.48
73780;SHT30;62093;37.614;15.072;2023-08-20T03:26:07;25.39;59.50
73780;SHT30;62093;37.614;15.072;2023-08-20T03:28:33;25.40;59.41
73780;SHT30;62093;37.614;15.072;2023-08-20T03:31:00;25.38;59.40
73780;SHT30;62093;37.614;15.072;2023-08-20T03:33:28;25.39;59.48
73780;SHT30;62093;37.614;15.072;2023-08-20T03:35:54;25.39;59.61
73780;SHT30;62093;37.614;15.072;2023-08-20T03:38:20;25.36;59.49
73780;SHT30;62093;37.614;15.072;2023-08-20T03:40:47;25.36;59.57
73780;SHT30;62093;37.614;15.072;2023-08-20T03:43:15;25.38;59.55
73780;SHT30;62093;37.614;15.072;2023-08-20T03:45:41;25.38;59.54
73780;SHT30;62093;37.614;15.072;2023-08-20T03:48:07;25.35;59.73
73780;SHT30;62093;37.614;15.072;2023-08-20T03:50:33;25.36;59.74
73780;SHT30;62093;37.614;15.072;2023-08-20T03:53:00;25.33;59.84
73780;SHT30;62093;37.614;15.072;2023-08-20T03:55:26;25.35;59.79
73780;SHT30;62093;37.614;15.072;2023-08-20T03:57:52;25.32;59.90
73780;SHT30;62093;37.614;15.072;2023-08-20T04:00:18;25.33;59.85
73780;SHT30;62093;37.614;15.072;2023-08-20T04:02:45;25.29;59.91
73780;SHT30;62093;37.614;15.072;2023-08-20T04:05:10;25.29;59.76
73780;SHT30;62093;37.614;15.072;2023-08-20T04:07:37;25.26;59.73
73780;SHT30;62093;37.614;15.072;2023-08-20T04:10:03;25.30;59.86
73780;SHT30;62093;37.614;15.072;2023-08-20T04:12:29;25.30;59.83
73780;SHT30;62093;37.614;15.072;2023-08-20T04:14:56;25.29;59.84
73780;SHT30;62093;37.614;15.072;2023-08-20T04:17:22;25.29;59.73
73780;SHT30;62093;37.614;15.072;2023-08-20T04:19:47;25.29;59.93
73780;SHT30;62093;37.614;15.072;2023-08-20T04:22:13;25.28;60.08
73780;SHT30;62093;37.614;15.072;2023-08-20T04:24:39;25.29;60.25
73780;SHT30;62093;37.614;15.072;2023-08-20T04:27:05;25.29;60.22
73780;SHT30;62093;37.614;15.072;2023-08-20T04:29:31;25.29;60.12
73780;SHT30;62093;37.614;15.072;2023-08-20T04:31:58;25.26;59.92
73780;SHT30;62093;37.614;15.072;2023-08-20T04:34:24;25.25;59.99
73780;SHT30;62093;37.614;15.072;2023-08-20T04:36:52;25.25;60.08
73780;SHT30;62093;37.614;15.072;2023-08-20T04:39:18;25.26;59.83
73780;SHT30;62093;37.614;15.072;2023-08-20T04:41:48;25.22;59.88
73780;SHT30;62093;37.614;15.072;2023-08-20T04:44:16;25.22;59.91
73780;SHT30;62093;37.614;15.072;2023-08-20T04:46:43;25.22;60.05
73780;SHT30;62093;37.614;15.072;2023-08-20T04:49:10;25.23;60.02
73780;SHT30;62093;37.614;15.072;2023-08-20T04:51:37;25.23;60.05
73780;SHT30;62093;37.614;15.072;2023-08-20T04:54:03;25.23;59.95
73780;SHT30;62093;37.614;15.072;2023-08-20T04:56:29;25.22;60.00
73780;SHT30;62093;37.614;15.072;2023-08-20T04:58:56;25.23;60.17
73780;SHT30;62093;37.614;15.072;2023-08-20T05:01:40;25.25;60.17
73780;SHT30;62093;37.614;15.072;2023-08-20T05:04:06;25.25;60.13
73780;SHT30;62093;37.614;15.072;2023-08-20T05:06:32;25.25;59.88
73780;SHT30;62093;37.614;15.072;2023-08-20T05:08:58;25.22;59.92
73780;SHT30;62093;37.614;15.072;2023-08-20T05:11:24;25.22;60.26
73780;SHT30;62093;37.614;15.072;2023-08-20T05:13:50;25.25;60.16
73780;SHT30;62093;37.614;15.072;2023-08-20T05:16:16;25.23;59.91
73780;SHT30;62093;37.614;15.072;2023-08-20T05:18:42;25.23;60.16
73780;SHT30;62093;37.614;15.072;2023-08-20T05:21:08;25.26;59.98
73780;SHT30;62093;37.614;15.072;2023-08-20T05:23:35;25.26;59.84
73780;SHT30;62093;37.614;15.072;2023-08-20T05:26:01;25.28;59.95
73780;SHT30;62093;37.614;15.072;2023-08-20T05:28:27;25.23;59.99
73780;SHT30;62093;37.614;15.072;2023-08-20T05:30:57;25.25;59.95
73780;SHT30;62093;37.614;15.072;2023-08-20T05:33:23;25.23;59.73
73780;SHT30;62093;37.614;15.072;2023-08-20T05:35:49;25.26;59.79
73780;SHT30;62093;37.614;15.072;2023-08-20T05:38:16;25.26;59.92
73780;SHT30;62093;37.614;15.072;2023-08-20T05:40:42;25.29;59.81
73780;SHT30;62093;37.614;15.072;2023-08-20T05:43:08;25.29;59.89
73780;SHT30;62093;37.614;15.072;2023-08-20T05:45:35;25.29;59.81
73780;SHT30;62093;37.614;15.072;2023-08-20T05:48:01;25.30;59.97
73780;SHT30;62093;37.614;15.072;2023-08-20T05:50:27;25.33;59.93
73780;SHT30;62093;37.614;15.072;2023-08-20T05:52:53;25.29;59.93
73780;SHT30;62093;37.614;15.072;2023-08-20T05:55:20;25.35;59.74
73780;SHT30;62093;37.614;15.072;2023-08-20T05:57:46;25.33;59.82
73780;SHT30;62093;37.614;15.072;2023-08-20T06:00:12;25.32;59.71
73780;SHT30;62093;37.614;15.072;2023-08-20T06:02:45;25.32;59.65
73780;SHT30;62093;37.614;15.072;2023-08-20T06:05:10;25.32;59.68
73780;SHT30;62093;37.614;15.072;2023-08-20T06:07:37;25.35;59.54
73780;SHT30;62093;37.614;15.072;2023-08-20T06:10:02;25.36;59.64
73780;SHT30;62093;37.614;15.072;2023-08-20T06:12:28;25.38;59.48
73780;SHT30;62093;37.614;15.072;2023-08-20T06:14:54;25.39;59.32
73780;SHT30;62093;37.614;15.072;2023-08-20T06:17:20;25.39;59.35
73780;SHT30;62093;37.614;15.072;2023-08-20T06:19:46;25.39;59.44
73780;SHT30;62093;37.614;15.072;2023-08-20T06:22:12;25.40;58.99
73780;SHT30;62093;37.614;15.072;2023-08-20T06:24:37;25.42;59.01
73780;SHT30;62093;37.614;15.072;2023-08-20T06:27:03;25.43;59.06
73780;SHT30;62093;37.614;15.072;2023-08-20T06:29:29;25.43;58.95
73780;SHT30;62093;37.614;15.072;2023-08-20T06:31:55;25.40;58.87
73780;SHT30;62093;37.614;15.072;2023-08-20T06:34:20;25.43;58.83
73780;SHT30;62093;37.614;15.072;2023-08-20T06:36:47;25.45;58.70
73780;SHT30;62093;37.614;15.072;2023-08-20T06:39:13;25.43;58.47
73780;SHT30;62093;37.614;15.072;2023-08-20T06:41:41;25.46;58.46
73780;SHT30;62093;37.614;15.072;2023-08-20T06:44:18;25.45;58.60
73780;SHT30;62093;37.614;15.072;2023-08-20T06:46:44;25.46;58.42
73780;SHT30;62093;37.614;15.072;2023-08-20T06:49:10;25.47;58.48
73780;SHT30;62093;37.614;15.072;2023-08-20T06:51:35;25.49;58.28
73780;SHT30;62093;37.614;15.072;2023-08-20T06:54:02;25.49;58.37
73780;SHT30;62093;37.614;15.072;2023-08-20T06:56:27;25.46;58.45
73780;SHT30;62093;37.614;15.072;2023-08-20T06:58:53;25.50;58.18
73780;SHT30;62093;37.614;15.072;2023-08-20T07:01:20;25.47;58.08
73780;SHT30;62093;37.614;15.072;2023-08-20T07:03:45;25.50;58.18
73780;SHT30;62093;37.614;15.072;2023-08-20T07:06:11;25.49;58.34
73780;SHT30;62093;37.614;15.072;2023-08-20T07:08:40;25.47;57.84
73780;SHT30;62093;37.614;15.072;2023-08-20T07:11:07;25.47;57.72
73780;SHT30;62093;37.614;15.072;2023-08-20T07:13:33;25.49;58.32
73780;SHT30;62093;37.614;15.072;2023-08-20T07:16:00;25.50;58.48
73780;SHT30;62093;37.614;15.072;2023-08-20T07:18:26;25.53;58.63
73780;SHT30;62093;37.614;15.072;2023-08-20T07:20:51;25.53;58.78
73780;SHT30;62093;37.614;15.072;2023-08-20T07:23:17;25.54;59.00
73780;SHT30;62093;37.614;15.072;2023-08-20T07:25:43;25.54;58.97
73780;SHT30;62093;37.614;15.072;2023-08-20T07:28:10;25.56;59.11
73780;SHT30;62093;37.614;15.072;2023-08-20T07:30:37;25.57;59.23
73780;SHT30;62093;37.614;15.072;2023-08-20T07:33:03;25.57;59.13
73780;SHT30;62093;37.614;15.072;2023-08-20T07:35:29;25.57;59.16
73780;SHT30;62093;37.614;15.072;2023-08-20T07:37:55;25.57;59.25
73780;SHT30;62093;37.614;15.072;2023-08-20T07:40:21;25.56;59.24
73780;SHT30;62093;37.614;15.072;2023-08-20T07:42:46;25.56;59.27
73780;SHT30;62093;37.614;15.072;2023-08-20T07:45:12;25.60;59.34
73780;SHT30;62093;37.614;15.072;2023-08-20T07:47:38;25.60;59.36
73780;SHT30;62093;37.614;15.072;2023-08-20T07:50:05;25.60;59.35
73780;SHT30;62093;37.614;15.072;2023-08-20T07:52:32;25.60;59.37
73780;SHT30;62093;37.614;15.072;2023-08-20T07:54:58;25.60;59.40
73780;SHT30;62093;37.614;15.072;2023-08-20T07:57:24;25.62;59.39
73780;SHT30;62093;37.614;15.072;2023-08-20T07:59:50;25.60;59.42
73780;SHT30;62093;37.614;15.072;2023-08-20T08:02:16;25.62;59.40
73780;SHT30;62093;37.614;15.072;2023-08-20T08:04:42;25.60;59.41
73780;SHT30;62093;37.614;15.072;2023-08-20T08:07:09;25.62;59.39
73780;SHT30;62093;37.614;15.072;2023-08-20T08:09:35;25.63;59.38
73780;SHT30;62093;37.614;15.072;2023-08-20T08:12:01;25.63;59.38
73780;SHT30;62093;37.614;15.072;2023-08-20T08:14:28;25.65;59.34
73780;SHT30;62093;37.614;15.072;2023-08-20T08:16:53;25.65;59.34
73780;SHT30;62093;37.614;15.072;2023-08-20T08:19:19;25.63;59.34
73780;SHT30;62093;37.614;15.072;2023-08-20T08:21:46;25.65;59.34
73780;SHT30;62093;37.614;15.072;2023-08-20T08:24:13;25.67;59.32
73780;SHT30;62093;37.614;15.072;2023-08-20T08:26:39;25.67;59.30
73780;SHT30;62093;37.614;15.072;2023-08-20T08:29:06;25.66;59.32
73780;SHT30;62093;37.614;15.072;2023-08-20T08:31:33;25.69;59.30
73780;SHT30;62093;37.614;15.072;2023-08-20T08:33:59;25.67;59.27
73780;SHT30;62093;37.614;15.072;2023-08-20T08:36:25;25.69;59.29
73780;SHT30;62093;37.614;15.072;2023-08-20T08:38:52;25.70;59.30
73780;SHT30;62093;37.614;15.072;2023-08-20T08:41:21;25.69;59.27
73780;SHT30;62093;37.614;15.072;2023-08-20T08:43:47;25.73;59.30
73780;SHT30;62093;37.614;15.072;2023-08-20T08:46:14;25.73;59.24
73780;SHT30;62093;37.614;15.072;2023-08-20T08:48:42;25.73;59.24
73780;SHT30;62093;37.614;15.072;2023-08-20T08:51:08;25.73;59.25
73780;SHT30;62093;37.614;15.072;2023-08-20T08:53:35;25.74;59.24
73780;SHT30;62093;37.614;15.072;2023-08-20T08:56:02;25.74;59.21
73780;SHT30;62093;37.614;15.072;2023-08-20T08:58:29;25.74;59.21
73780;SHT30;62093;37.614;15.072;2023-08-20T09:00:54;25.73;59.24
73780;SHT30;62093;37.614;15.072;2023-08-20T09:03:20;25.76;59.23
73780;SHT30;62093;37.614;15.072;2023-08-20T09:05:50;25.74;59.24
73780;SHT30;62093;37.614;15.072;2023-08-20T09:08:37;25.73;59.20
73780;SHT30;62093;37.614;15.072;2023-08-20T09:11:03;25.76;59.19
73780;SHT30;62093;37.614;15.072;2023-08-20T09:13:40;25.77;59.21
73780;SHT30;62093;37.614;15.072;2023-08-20T09:16:07;25.78;59.20
73780;SHT30;62093;37.614;15.072;2023-08-20T09:18:44;25.76;59.20
73780;SHT30;62093;37.614;15.072;2023-08-20T09:21:12;25.76;59.15
73780;SHT30;62093;37.614;15.072;2023-08-20T09:23:39;25.77;59.22
73780;SHT30;62093;37.614;15.072;2023-08-20T09:26:07;25.80;59.18
73780;SHT30;62093;37.614;15.072;2023-08-20T09:28:43;25.80;59.18
73780;SHT30;62093;37.614;15.072;2023-08-20T09:31:10;25.78;59.17
73780;SHT30;62093;37.614;15.072;2023-08-20T09:33:36;25.81;59.16
73780;SHT30;62093;37.614;15.072;2023-08-20T09:36:05;25.80;59.14
73780;SHT30;62093;37.614;15.072;2023-08-20T09:38:36;25.81;59.17
73780;SHT30;62093;37.614;15.072;2023-08-20T09:41:05;25.83;59.14
73780;SHT30;62093;37.614;15.072;2023-08-20T09:43:33;25.81;59.12
73780;SHT30;62093;37.614;15.072;2023-08-20T09:46:02;25.83;59.12
73780;SHT30;62093;37.614;15.072;2023-08-20T09:48:33;25.83;59.07
73780;SHT30;62093;37.614;15.072;2023-08-20T09:51:00;25.86;59.05
73780;SHT30;62093;37.614;15.072;2023-08-20T09:53:34;25.84;59.04
73780;SHT30;62093;37.614;15.072;2023-08-20T09:56:09;25.87;59.03
73780;SHT30;62093;37.614;15.072;2023-08-20T09:58:37;25.87;59.01
73780;SHT30;62093;37.614;15.072;2023-08-20T10:01:04;25.87;59.01
73780;SHT30;62093;37.614;15.072;2023-08-20T10:03:30;25.88;59.02
73780;SHT30;62093;37.614;15.072;2023-08-20T10:05:56;25.90;58.97
73780;SHT30;62093;37.614;15.072;2023-08-20T10:08:24;25.90;58.95
73780;SHT30;62093;37.614;15.072;2023-08-20T10:10:50;25.90;58.95
73780;SHT30;62093;37.614;15.072;2023-08-20T10:13:16;25.94;58.94
73780;SHT30;62093;37.614;15.072;2023-08-20T10:15:42;25.91;58.92
73780;SHT30;62093;37.614;15.072;2023-08-20T10:18:08;25.94;58.92
73780;SHT30;62093;37.614;15.072;2023-08-20T10:20:35;25.93;58.90
73780;SHT30;62093;37.614;15.072;2023-08-20T10:23:03;25.91;58.87
73780;SHT30;62093;37.614;15.072;2023-08-20T10:25:30;25.96;58.88
73780;SHT30;62093;37.614;15.072;2023-08-20T10:28:13;25.96;58.83
73780;SHT30;62093;37.614;15.072;2023-08-20T10:31:08;25.97;58.84
73780;SHT30;62093;37.614;15.072;2023-08-20T10:34:16;25.96;58.85
73780;SHT30;62093;37.614;15.072;2023-08-20T10:36:24;25.96;58.82
73780;SHT30;62093;37.614;15.072;2023-08-20T10:38:56;25.97;58.82
73780;SHT30;62093;37.614;15.072;2023-08-20T10:41:30;25.98;58.81
73780;SHT30;62093;37.614;15.072;2023-08-20T10:43:59;25.98;58.79
73780;SHT30;62093;37.614;15.072;2023-08-20T10:46:27;26.00;58.83
73780;SHT30;62093;37.614;15.072;2023-08-20T10:49:02;26.01;58.79
73780;SHT30;62093;37.614;15.072;2023-08-20T10:51:36;26.01;58.75
73780;SHT30;62093;37.614;15.072;2023-08-20T10:56:55;26.02;58.77
73780;SHT30;62093;37.614;15.072;2023-08-20T11:01:54;26.05;58.74
73780;SHT30;62093;37.614;15.072;2023-08-20T11:04:26;26.01;58.72
73780;SHT30;62093;37.614;15.072;2023-08-20T11:06:54;26.05;58.70
73780;SHT30;62093;37.614;15.072;2023-08-20T11:09:24;26.07;58.69
73780;SHT30;62093;37.614;15.072;2023-08-20T11:11:51;26.05;58.75
73780;SHT30;62093;37.614;15.072;2023-08-20T11:14:19;26.07;58.68
73780;SHT30;62093;37.614;15.072;2023-08-20T11:16:46;26.08;58.69
73780;SHT30;62093;37.614;15.072;2023-08-20T11:19:13;26.08;58.66
73780;SHT30;62093;37.614;15.072;2023-08-20T11:21:40;26.10;58.64
73780;SHT30;62093;37.614;15.072;2023-08-20T11:24:07;26.11;58.69
73780;SHT30;62093;37.614;15.072;2023-08-20T11:26:39;26.08;58.68
73780;SHT30;62093;37.614;15.072;2023-08-20T11:29:15;26.11;58.65
73780;SHT30;62093;37.614;15.072;2023-08-20T11:31:46;26.10;58.67
73780;SHT30;62093;37.614;15.072;2023-08-20T11:34:12;26.10;58.67
73780;SHT30;62093;37.614;15.072;2023-08-20T11:36:39;26.10;58.66
73780;SHT30;62093;37.614;15.072;2023-08-20T11:39:06;26.10;58.65
73780;SHT30;62093;37.614;15.072;2023-08-20T11:41:35;26.10;58.68
73780;SHT30;62093;37.614;15.072;2023-08-20T11:44:01;26.13;58.72
73780;SHT30;62093;37.614;15.072;2023-08-20T11:46:29;26.13;58.69
73780;SHT30;62093;37.614;15.072;2023-08-20T11:49:03;26.13;58.68
73780;SHT30;62093;37.614;15.072;2023-08-20T11:51:30;26.11;58.74
73780;SHT30;62093;37.614;15.072;2023-08-20T11:54:00;26.08;58.72
73780;SHT30;62093;37.614;15.072;2023-08-20T11:56:27;26.10;58.75
73780;SHT30;62093;37.614;15.072;2023-08-20T11:58:59;26.11;58.71
73780;SHT30;62093;37.614;15.072;2023-08-20T12:01:25;26.10;58.73
73780;SHT30;62093;37.614;15.072;2023-08-20T12:03:50;26.10;58.77
73780;SHT30;62093;37.614;15.072;2023-08-20T12:06:20;26.11;58.77
73780;SHT30;62093;37.614;15.072;2023-08-20T12:08:48;26.11;58.76
73780;SHT30;62093;37.614;15.072;2023-08-20T12:11:14;26.11;58.75
73780;SHT30;62093;37.614;15.072;2023-08-20T12:13:40;26.11;58.77
73780;SHT30;62093;37.614;15.072;2023-08-20T12:16:06;26.13;58.78
73780;SHT30;62093;37.614;15.072;2023-08-20T12:18:32;26.10;58.80
73780;SHT30;62093;37.614;15.072;2023-08-20T12:20:58;26.11;58.81
73780;SHT30;62093;37.614;15.072;2023-08-20T12:23:24;26.10;58.77
73780;SHT30;62093;37.614;15.072;2023-08-20T12:25:50;26.13;58.82
73780;SHT30;62093;37.614;15.072;2023-08-20T12:28:17;26.11;58.78
73780;SHT30;62093;37.614;15.072;2023-08-20T12:30:44;26.13;58.75
73780;SHT30;62093;37.614;15.072;2023-08-20T12:33:11;26.13;58.79
73780;SHT30;62093;37.614;15.072;2023-08-20T12:35:37;26.13;58.76
73780;SHT30;62093;37.614;15.072;2023-08-20T12:38:03;26.11;58.78
73780;SHT30;62093;37.614;15.072;2023-08-20T12:40:30;26.13;58.81
73780;SHT30;62093;37.614;15.072;2023-08-20T12:42:56;26.14;58.77
73780;SHT30;62093;37.614;15.072;2023-08-20T12:45:22;26.13;58.76
73780;SHT30;62093;37.614;15.072;2023-08-20T12:47:47;26.13;58.79
73780;SHT30;62093;37.614;15.072;2023-08-20T12:50:14;26.14;58.81
73780;SHT30;62093;37.614;15.072;2023-08-20T12:52:40;26.13;58.81
73780;SHT30;62093;37.614;15.072;2023-08-20T12:55:06;26.13;58.82
73780;SHT30;62093;37.614;15.072;2023-08-20T12:57:34;26.14;58.82
73780;SHT30;62093;37.614;15.072;2023-08-20T13:00:01;26.14;58.81
73780;SHT30;62093;37.614;15.072;2023-08-20T13:02:27;26.14;58.78
73780;SHT30;62093;37.614;15.072;2023-08-20T13:04:53;26.17;58.82
73780;SHT30;62093;37.614;15.072;2023-08-20T13:07:19;26.14;58.79
73780;SHT30;62093;37.614;15.072;2023-08-20T13:09:45;26.16;58.76
73780;SHT30;62093;37.614;15.072;2023-08-20T13:12:11;26.16;58.79
73780;SHT30;62093;37.614;15.072;2023-08-20T13:14:40;26.18;58.79
73780;SHT30;62093;37.614;15.072;2023-08-20T13:17:07;26.14;58.77
73780;SHT30;62093;37.614;15.072;2023-08-20T13:19:33;26.17;58.79
73780;SHT30;62093;37.614;15.072;2023-08-20T13:21:59;26.17;58.80
73780;SHT30;62093;37.614;15.072;2023-08-20T13:24:25;26.16;58.83
73780;SHT30;62093;37.614;15.072;2023-08-20T13:26:51;26.16;58.82
73780;SHT30;62093;37.614;15.072;2023-08-20T13:29:17;26.17;58.79
73780;SHT30;62093;37.614;15.072;2023-08-20T13:31:42;26.17;58.82
73780;SHT30;62093;37.614;15.072;2023-08-20T13:34:09;26.16;58.84
73780;SHT30;62093;37.614;15.072;2023-08-20T13:36:35;26.20;58.83
73780;SHT30;62093;37.614;15.072;2023-08-20T13:39:00;26.17;58.83
73780;SHT30;62093;37.614;15.072;2023-08-20T13:41:27;26.18;58.83
73780;SHT30;62093;37.614;15.072;2023-08-20T13:43:53;26.16;58.87
73780;SHT30;62093;37.614;15.072;2023-08-20T13:46:19;26.18;58.88
73780;SHT30;62093;37.614;15.072;2023-08-20T13:48:44;26.16;58.89
73780;SHT30;62093;37.614;15.072;2023-08-20T13:51:10;26.16;58.87
73780;SHT30;62093;37.614;15.072;2023-08-20T13:53:36;26.14;58.87
73780;SHT30;62093;37.614;15.072;2023-08-20T13:56:02;26.16;58.89
73780;SHT30;62093;37.614;15.072;2023-08-20T13:58:28;26.17;58.91
73780;SHT30;62093;37.614;15.072;2023-08-20T14:00:53;26.14;58.90
73780;SHT30;62093;37.614;15.072;2023-08-20T14:03:19;26.14;58.93
73780;SHT30;62093;37.614;15.072;2023-08-20T14:05:45;26.17;58.90
73780;SHT30;62093;37.614;15.072;2023-08-20T14:08:11;26.14;58.93
73780;SHT30;62093;37.614;15.072;2023-08-20T14:10:37;26.18;58.94
73780;SHT30;62093;37.614;15.072;2023-08-20T14:13:03;26.16;59.00
73780;SHT30;62093;37.614;15.072;2023-08-20T14:15:28;26.14;58.93
73780;SHT30;62093;37.614;15.072;2023-08-20T14:17:54;26.16;59.00
73780;SHT30;62093;37.614;15.072;2023-08-20T14:20:20;26.16;59.02
73780;SHT30;62093;37.614;15.072;2023-08-20T14:22:46;26.14;59.01
73780;SHT30;62093;37.614;15.072;2023-08-20T14:25:12;26.16;59.08
73780;SHT30;62093;37.614;15.072;2023-08-20T14:27:38;26.13;59.03
73780;SHT30;62093;37.614;15.072;2023-08-20T14:30:05;26.11;59.12
73780;SHT30;62093;37.614;15.072;2023-08-20T14:32:31;26.11;59.09
73780;SHT30;62093;37.614;15.072;2023-08-20T14:34:57;26.08;59.14
73780;SHT30;62093;37.614;15.072;2023-08-20T14:37:24;26.08;59.15
73780;SHT30;62093;37.614;15.072;2023-08-20T14:41:40;26.05;59.19
73780;SHT30;62093;37.614;15.072;2023-08-20T14:44:06;26.07;59.20
73780;SHT30;62093;37.614;15.072;2023-08-20T14:46:32;26.05;59.27
73780;SHT30;62093;37.614;15.072;2023-08-20T14:48:58;26.02;59.31
73780;SHT30;62093;37.614;15.072;2023-08-20T14:51:24;26.02;59.39
73780;SHT30;62093;37.614;15.072;2023-08-20T14:53:50;26.04;59.70
73780;SHT30;62093;37.614;15.072;2023-08-20T14:56:16;26.02;59.58
73780;SHT30;62093;37.614;15.072;2023-08-20T14:58:42;26.02;59.54
73780;SHT30;62093;37.614;15.072;2023-08-20T15:01:07;25.98;59.85
73780;SHT30;62093;37.614;15.072;2023-08-20T15:03:34;25.97;59.90
73780;SHT30;62093;37.614;15.072;2023-08-20T15:05:59;25.97;59.94
73780;SHT30;62093;37.614;15.072;2023-08-20T15:08:25;25.96;60.05
73780;SHT30;62093;37.614;15.072;2023-08-20T15:11:01;25.97;60.03
73780;SHT30;62093;37.614;15.072;2023-08-20T15:13:32;25.94;60.21
73780;SHT30;62093;37.614;15.072;2023-08-20T15:15:59;25.93;60.30
73780;SHT30;62093;37.614;15.072;2023-08-20T15:18:24;25.96;60.30
73780;SHT30;62093;37.614;15.072;2023-08-20T15:20:57;25.93;60.21
73780;SHT30;62093;37.614;15.072;2023-08-20T15:23:25;25.91;60.14
73780;SHT30;62093;37.614;15.072;2023-08-20T15:25:52;25.90;60.16
73780;SHT30;62093;37.614;15.072;2023-08-20T15:28:22;25.90;60.22